메인 페이지
METAR-TAF:

METAR-TAF

공항 :

누악쇼트, 모리타니

위도: 18-18-36N, 경도: 015-58-11W, 고도: 3m

현재 날씨관측

예보는 26분 전, 23:00시(UTC)에 발표되었습니다.
9kt
온도 23°C
습도 69%
기압 1015 hPa
시정 10km 이상
1500m 미만 상공 구름 및 적란운 없음

METAR: GQNO 012300Z 35009KT CAVOK 23/17 Q1015 NOSIG

시각: 23:26 (23:26 UTC)

예보

예보는 6 시간 26분 전, 17:00시(UTC)에 발표되었습니다.
예보 대상 시간: 01일 18시부터 02일 24시까지 (UTC)
10kt
시정: 8000m
확률 30% :
일시적
02일 02시부터 02일 06시까지 (UTC)
고도 1000ft 상공 구름 많음

TAF: GQNO 011700Z 0118/0224 35010KT 8000 NSC PROB30 TEMPO 0202/0206 BKN010

4,000개 이상의 공항 관측 자료 및 예보 (METAR 및 TAF 보고).

지도상에서 검색 가능한 기상관측소가 노란 점과 빨간 점으로 표시되어 있습니다.

기상관측소 명을 보려면 표시 위로 마우스를 이동하세요.

날씨 관측과 예보를 보려면 클릭하세요.

지도 변경 : 확대하려면 엑스 표시가 있는 녹색 버튼, 축소하려면 빼기 표시가 있는 녹색 버튼, 다음 페이지의 지도를 보려면 녹색 화살표를 클릭하세요.


METAR-TAF: